Time;durP1;ratioP1;P1;durP2;ratioP2;P2;SDS_P1;SDS_P2;PMS_P1;PMS_P2;Temp;Humidity;BMP_temperature;BMP_pressure;BME280_temperature;BME280_humidity;BME280_pressure;Samples;Min_cycle;Max_cycle;Signal;HPM_P1;HPM_P2
2021/08/14 00:01:50;;;;;;;0.40;0.30;;;20.50;99.90;;;;;;5088418;28;20371;-76
2021/08/14 00:04:16;;;;;;;0.40;0.20;;;20.60;99.90;;;;;;5098821;28;20388;-76
2021/08/14 00:06:41;;;;;;;0.40;0.30;;;20.70;99.90;;;;;;5080779;28;20779;-76
2021/08/14 00:09:07;;;;;;;0.40;0.20;;;20.70;99.90;;;;;;5090892;28;20389;-76
2021/08/14 00:11:33;;;;;;;0.40;0.38;;;20.60;99.90;;;;;;5090470;28;20374;-76
2021/08/14 00:13:58;;;;;;;0.40;0.30;;;20.60;99.90;;;;;;5072925;28;20397;-75
2021/08/14 00:16:24;;;;;;;0.40;0.20;;;20.70;99.90;;;;;;5090025;28;20423;-76
2021/08/14 00:18:49;;;;;;;0.40;0.30;;;20.60;99.90;;;;;;5090598;28;20515;-76
2021/08/14 00:21:15;;;;;;;0.40;0.20;;;20.60;99.90;;;;;;5091009;28;20671;-76
2021/08/14 00:23:41;;;;;;;0.40;0.20;;;20.60;99.90;;;;;;5091302;28;20787;-76
2021/08/14 00:26:06;;;;;;;0.40;0.20;;;20.60;99.90;;;;;;5095142;28;20402;-76
2021/08/14 00:28:32;;;;;;;0.40;0.30;;;20.50;99.90;;;;;;5094025;28;20406;-76
2021/08/14 00:30:58;;;;;;;0.40;0.30;;;20.50;99.90;;;;;;5094868;28;20374;-76
2021/08/14 00:33:23;;;;;;;0.40;0.30;;;20.50;99.90;;;;;;5094093;28;20431;-76
2021/08/14 00:35:49;;;;;;;0.40;0.30;;;20.50;99.90;;;;;;5094755;28;20381;-76
2021/08/14 00:38:15;;;;;;;0.40;0.30;;;20.40;99.90;;;;;;5094735;28;20401;-76
2021/08/14 00:40:41;;;;;;;0.40;0.20;;;20.40;99.90;;;;;;5094411;28;20823;-76
2021/08/14 00:43:07;;;;;;;0.40;0.30;;;20.40;99.90;;;;;;5094388;28;20730;-76
2021/08/14 00:45:41;;;;;;;0.40;0.20;;;20.50;99.90;;;;;;5094034;28;20451;-76
2021/08/14 00:48:08;;;;;;;0.40;0.20;;;21.60;99.90;;;;;;5094702;28;20768;-76
2021/08/14 00:50:35;;;;;;;0.40;0.30;;;20.30;99.90;;;;;;5075738;28;20385;-76
2021/08/14 00:53:01;;;;;;;0.40;0.20;;;20.10;99.90;;;;;;5094206;28;20858;-76
2021/08/14 00:55:26;;;;;;;0.40;0.30;;;20.40;99.90;;;;;;5093613;28;20454;-76
2021/08/14 00:57:52;;;;;;;0.40;0.30;;;20.40;99.90;;;;;;5094193;28;20707;-76
2021/08/14 01:00:18;;;;;;;0.40;0.30;;;20.20;99.90;;;;;;5094611;28;20786;-76
2021/08/14 01:02:43;;;;;;;0.40;0.20;;;20.20;99.90;;;;;;5093823;28;20382;-77
2021/08/14 01:05:11;;;;;;;0.40;0.20;;;20.20;99.90;;;;;;5094087;28;20896;-76
2021/08/14 01:07:36;;;;;;;0.40;0.20;;;20.10;99.90;;;;;;5093969;28;20393;-76
2021/08/14 01:10:03;;;;;;;0.40;0.30;;;20.20;99.90;;;;;;5094252;28;20394;-76
2021/08/14 01:12:29;;;;;;;0.40;0.20;;;20.20;99.90;;;;;;5093270;28;20919;-76
2021/08/14 01:14:55;;;;;;;0.40;0.20;;;20.00;99.90;;;;;;5094247;28;20382;-76
2021/08/14 01:17:21;;;;;;;0.40;0.30;;;20.10;99.90;;;;;;5093732;28;20800;-75
2021/08/14 01:19:47;;;;;;;0.40;0.20;;;20.10;99.90;;;;;;5093281;28;20512;-75
2021/08/14 01:22:15;;;;;;;0.40;0.30;;;20.20;99.90;;;;;;5093980;28;20389;-75
2021/08/14 01:24:43;;;;;;;0.40;0.20;;;20.20;99.90;;;;;;5093451;28;20413;-76
2021/08/14 01:27:09;;;;;;;0.40;0.30;;;20.10;99.90;;;;;;5094008;28;20730;-76
2021/08/14 01:29:35;;;;;;;0.40;0.20;;;19.90;99.90;;;;;;5093427;28;20402;-75
2021/08/14 01:32:02;;;;;;;0.40;0.20;;;20.00;99.90;;;;;;5093836;28;20449;-75
2021/08/14 01:34:28;;;;;;;0.40;0.28;;;19.90;99.90;;;;;;5092702;28;20381;-75
2021/08/14 01:36:53;;;;;;;0.40;0.20;;;19.90;99.90;;;;;;5093696;28;20374;-75
2021/08/14 01:39:19;;;;;;;0.40;0.28;;;19.90;99.90;;;;;;5093298;28;20416;-76
2021/08/14 01:42:06;;;;;;;0.40;0.20;;;20.00;99.90;;;;;;5108793;28;20375;-76
2021/08/14 01:44:33;;;;;;;0.40;0.20;;;20.00;99.90;;;;;;5092928;28;20397;-75
2021/08/14 01:46:59;;;;;;;0.40;0.20;;;19.90;99.90;;;;;;5093514;28;20374;-76
2021/08/14 01:49:25;;;;;;;0.40;0.20;;;19.80;99.90;;;;;;5075233;28;20393;-76
2021/08/14 01:51:51;;;;;;;0.40;0.30;;;19.70;99.90;;;;;;5092859;28;20820;-75
2021/08/14 01:54:17;;;;;;;0.40;0.30;;;19.70;99.90;;;;;;5093374;28;20385;-75
2021/08/14 01:56:43;;;;;;;0.40;0.20;;;19.70;99.90;;;;;;5092748;28;20382;-75
2021/08/14 01:59:10;;;;;;;0.40;0.20;;;19.80;99.90;;;;;;5093194;28;20414;-75
2021/08/14 02:01:36;;;;;;;0.40;0.30;;;19.70;99.90;;;;;;5092768;28;20862;-75
2021/08/14 02:04:02;;;;;;;0.40;0.30;;;19.70;99.90;;;;;;5093191;28;20366;-75
2021/08/14 02:06:28;;;;;;;0.40;0.20;;;19.70;99.90;;;;;;5092890;28;20437;-75
2021/08/14 02:08:56;;;;;;;0.40;0.35;;;19.60;99.90;;;;;;5093032;28;20374;-75
2021/08/14 02:11:34;;;;;;;0.40;0.20;;;19.70;99.90;;;;;;5093087;28;20444;-75
2021/08/14 02:13:59;;;;;;;0.40;0.22;;;19.60;99.90;;;;;;5092849;28;20389;-75
2021/08/14 02:16:25;;;;;;;0.40;0.40;;;19.70;99.90;;;;;;5092825;28;20386;-75
2021/08/14 02:18:51;;;;;;;0.40;0.30;;;19.80;99.90;;;;;;5092191;28;20377;-76
2021/08/14 02:21:17;;;;;;;0.40;0.30;;;19.70;99.90;;;;;;5092666;28;20809;-76
2021/08/14 02:23:43;;;;;;;0.40;0.30;;;19.60;99.90;;;;;;5092222;28;20382;-75
2021/08/14 02:26:09;;;;;;;0.40;0.30;;;19.70;99.90;;;;;;5092598;28;20409;-76
2021/08/14 02:28:35;;;;;;;0.40;0.30;;;19.60;99.90;;;;;;5092029;28;20406;-75
2021/08/14 02:31:03;;;;;;;0.40;0.30;;;19.60;99.90;;;;;;5092300;28;20432;-75
2021/08/14 02:33:32;;;;;;;0.40;0.20;;;19.70;99.90;;;;;;5074491;28;20386;-76
2021/08/14 02:35:59;;;;;;;0.40;0.30;;;19.40;99.90;;;;;;5092536;28;20738;-75
2021/08/14 02:38:25;;;;;;;0.40;0.30;;;19.70;99.90;;;;;;5092838;28;20774;-75
2021/08/14 02:40:51;;;;;;;0.40;0.30;;;19.70;99.90;;;;;;5092350;28;20480;-75
2021/08/14 02:43:17;;;;;;;0.40;0.40;;;19.70;99.90;;;;;;5092455;28;20378;-75
2021/08/14 02:45:43;;;;;;;0.40;0.30;;;19.60;99.90;;;;;;5091125;28;20539;-75
2021/08/14 02:48:09;;;;;;;0.40;0.20;;;19.50;99.90;;;;;;5092860;28;20376;-75
2021/08/14 02:50:34;;;;;;;0.40;0.20;;;19.60;99.90;;;;;;5068013;28;20735;-76
2021/08/14 02:53:00;;;;;;;0.40;0.30;;;19.50;99.90;;;;;;5073799;28;20397;-77
2021/08/14 02:55:26;;;;;;;0.40;0.20;;;19.50;99.90;;;;;;5084396;28;20386;-76
2021/08/14 02:57:52;;;;;;;0.40;0.30;;;19.40;99.90;;;;;;5094947;28;20392;-76
2021/08/14 03:00:18;;;;;;;0.40;0.30;;;19.30;99.90;;;;;;5097241;28;20397;-76
2021/08/14 03:02:44;;;;;;;0.40;0.20;;;19.30;99.90;;;;;;5107777;28;20380;-76
2021/08/14 03:05:10;;;;;;;0.40;0.20;;;19.30;99.90;;;;;;5096419;28;20422;-76
2021/08/14 03:07:36;;;;;;;0.40;0.20;;;19.30;99.90;;;;;;5084255;28;20731;-76
2021/08/14 03:10:03;;;;;;;0.40;0.20;;;19.30;99.90;;;;;;5103943;28;20381;-76
2021/08/14 03:12:28;;;;;;;0.40;0.30;;;19.40;99.90;;;;;;5095862;28;20382;-77
2021/08/14 03:14:54;;;;;;;0.40;0.30;;;19.30;99.90;;;;;;5107637;28;20447;-76
2021/08/14 03:17:19;;;;;;;0.40;0.30;;;19.30;99.90;;;;;;5097820;28;20381;-77
2021/08/14 03:19:45;;;;;;;0.40;0.20;;;19.40;99.90;;;;;;5101117;28;20373;-76
2021/08/14 03:22:11;;;;;;;0.40;0.20;;;19.30;99.90;;;;;;5105128;28;20433;-77
2021/08/14 03:24:39;;;;;;;0.40;0.20;;;19.50;99.90;;;;;;5094125;28;20424;-76
2021/08/14 03:27:06;;;;;;;0.40;0.30;;;19.60;99.90;;;;;;5107678;28;20374;-77
2021/08/14 03:29:33;;;;;;;0.40;0.20;;;19.50;99.90;;;;;;5098827;28;20428;-76
2021/08/14 03:31:59;;;;;;;0.40;0.30;;;19.40;99.90;;;;;;5111449;28;20388;-77
2021/08/14 03:34:25;;;;;;;0.40;0.30;;;19.40;99.90;;;;;;5111215;28;20372;-76
2021/08/14 03:36:51;;;;;;;0.40;0.20;;;19.40;99.90;;;;;;5106355;28;20386;-76
2021/08/14 03:39:16;;;;;;;0.40;0.30;;;19.20;99.90;;;;;;5106133;28;20510;-76
2021/08/14 03:41:42;;;;;;;0.40;0.30;;;19.30;99.90;;;;;;5092618;28;20388;-76
2021/08/14 03:44:08;;;;;;;0.40;0.25;;;19.30;99.90;;;;;;5111690;28;20391;-76
2021/08/14 03:46:34;;;;;;;0.40;0.30;;;19.20;99.90;;;;;;5111151;28;20408;-75
2021/08/14 03:49:00;;;;;;;0.40;0.30;;;19.30;99.90;;;;;;5111641;28;20410;-76
2021/08/14 03:51:25;;;;;;;0.40;0.30;;;19.20;99.90;;;;;;5111243;28;20851;-76
2021/08/14 03:53:51;;;;;;;0.40;0.20;;;19.20;99.90;;;;;;5104840;28;20389;-76
2021/08/14 03:56:16;;;;;;;0.40;0.25;;;19.20;99.90;;;;;;5087845;28;20392;-77
2021/08/14 03:58:42;;;;;;;0.40;0.20;;;19.20;99.90;;;;;;5085957;28;20386;-77
2021/08/14 04:01:08;;;;;;;0.40;0.20;;;19.10;99.90;;;;;;5082409;28;20408;-77
2021/08/14 04:03:34;;;;;;;0.40;0.30;;;19.10;99.90;;;;;;5098166;28;20382;-76
2021/08/14 04:06:00;;;;;;;0.40;0.25;;;19.20;99.90;;;;;;5107808;28;20436;-76
2021/08/14 04:08:25;;;;;;;0.40;0.30;;;19.00;99.90;;;;;;5094602;28;20416;-76
2021/08/14 04:10:51;;;;;;;0.40;0.30;;;19.00;99.90;;;;;;5103758;28;20736;-77
2021/08/14 04:13:17;;;;;;;0.40;0.30;;;19.00;99.90;;;;;;5101835;28;20437;-77
2021/08/14 04:15:43;;;;;;;0.40;0.20;;;19.00;99.90;;;;;;5095952;28;20375;-76
2021/08/14 04:18:09;;;;;;;0.40;0.30;;;19.00;99.90;;;;;;5107919;28;20379;-76
2021/08/14 04:20:35;;;;;;;0.40;0.30;;;19.10;99.90;;;;;;5095905;28;20436;-76
2021/08/14 04:23:01;;;;;;;0.40;0.20;;;19.10;99.90;;;;;;5102837;28;20431;-76
2021/08/14 04:25:27;;;;;;;0.40;0.30;;;19.00;99.90;;;;;;5092637;28;20405;-77
2021/08/14 04:27:53;;;;;;;0.40;0.30;;;19.00;99.90;;;;;;5106546;28;20741;-77
2021/08/14 04:30:18;;;;;;;0.40;0.30;;;19.00;99.90;;;;;;5076490;28;20386;-76
2021/08/14 04:32:44;;;;;;;0.40;0.20;;;19.10;99.90;;;;;;5104437;28;20448;-77
2021/08/14 04:35:13;;;;;;;0.40;0.30;;;19.20;99.90;;;;;;5100854;28;20685;-77
2021/08/14 04:37:40;;;;;;;0.40;0.30;;;19.20;99.90;;;;;;5096569;28;20755;-76
2021/08/14 04:40:08;;;;;;;0.40;0.20;;;19.10;99.90;;;;;;5107412;28;20393;-76
2021/08/14 04:42:35;;;;;;;0.40;0.20;;;19.00;99.90;;;;;;5095680;28;20461;-77
2021/08/14 04:45:01;;;;;;;0.40;0.30;;;19.00;99.90;;;;;;5101962;28;20405;-77
2021/08/14 04:47:26;;;;;;;0.40;0.22;;;19.10;99.90;;;;;;5103056;28;20426;-77
2021/08/14 04:49:52;;;;;;;0.40;0.20;;;19.10;99.90;;;;;;5094819;28;20393;-76
2021/08/14 04:52:17;;;;;;;0.40;0.30;;;19.10;99.90;;;;;;5107251;28;20472;-77
2021/08/14 04:54:43;;;;;;;0.40;0.30;;;19.10;99.90;;;;;;5096418;28;20372;-76
2021/08/14 04:57:09;;;;;;;0.40;0.22;;;19.10;99.90;;;;;;5101267;28;20854;-76
2021/08/14 04:59:35;;;;;;;0.40;0.20;;;19.00;99.90;;;;;;5085903;28;20472;-76
2021/08/14 05:02:03;;;;;;;0.40;0.20;;;19.10;99.90;;;;;;5093250;28;20855;-76
2021/08/14 05:04:29;;;;;;;0.40;0.20;;;19.00;99.90;;;;;;5106947;28;20382;-76
2021/08/14 05:06:55;;;;;;;0.40;0.20;;;19.10;99.90;;;;;;5097710;28;20457;-76
2021/08/14 05:09:21;;;;;;;0.40;0.20;;;19.10;99.90;;;;;;5100257;28;20858;-78
2021/08/14 05:11:46;;;;;;;0.40;0.20;;;19.10;99.90;;;;;;5108499;28;20429;-78
2021/08/14 05:14:12;;;;;;;0.40;0.30;;;19.00;99.90;;;;;;5097488;28;20418;-76
2021/08/14 05:16:38;;;;;;;0.40;0.30;;;19.10;99.90;;;;;;5108287;28;20377;-75
2021/08/14 05:19:04;;;;;;;0.40;0.20;;;19.20;99.90;;;;;;5105615;28;20362;-76
2021/08/14 05:21:30;;;;;;;0.40;0.30;;;19.30;99.90;;;;;;5093915;28;20385;-76
2021/08/14 05:23:56;;;;;;;0.40;0.20;;;19.30;99.90;;;;;;5109828;28;20733;-76
2021/08/14 05:26:22;;;;;;;0.40;0.30;;;19.30;99.90;;;;;;5097387;28;20404;-76
2021/08/14 05:28:48;;;;;;;0.40;0.20;;;19.30;99.90;;;;;;5106866;28;20402;-76
2021/08/14 05:31:13;;;;;;;0.40;0.20;;;19.30;99.90;;;;;;5104087;28;20807;-76
2021/08/14 05:33:39;;;;;;;0.40;0.20;;;19.30;99.90;;;;;;5099756;28;20469;-76
2021/08/14 05:36:08;;;;;;;0.40;0.30;;;19.50;99.90;;;;;;5110552;28;20441;-76
2021/08/14 05:38:34;;;;;;;0.40;0.30;;;19.30;99.90;;;;;;5098703;28;20380;-77
2021/08/14 05:40:59;;;;;;;0.40;0.30;;;19.70;99.90;;;;;;5105446;28;20398;-78
2021/08/14 05:43:25;;;;;;;0.40;0.30;;;19.70;99.90;;;;;;5105804;28;20369;-77
2021/08/14 05:45:51;;;;;;;0.40;0.30;;;19.60;99.90;;;;;;5097943;28;20767;-76
2021/08/14 05:48:18;;;;;;;0.40;0.20;;;19.80;99.90;;;;;;5110445;28;20377;-77
2021/08/14 05:50:44;;;;;;;0.40;0.30;;;19.90;99.90;;;;;;5099230;28;20383;-76
2021/08/14 05:53:10;;;;;;;0.40;0.30;;;19.90;99.90;;;;;;5103707;28;20457;-77
2021/08/14 05:55:36;;;;;;;0.40;0.30;;;19.90;99.90;;;;;;5088596;28;20523;-78
2021/08/14 05:58:02;;;;;;;0.40;0.20;;;20.10;99.90;;;;;;5096256;28;20370;-77
2021/08/14 06:00:27;;;;;;;0.40;0.20;;;20.20;99.90;;;;;;5109130;28;20753;-78
2021/08/14 06:02:53;;;;;;;0.40;0.20;;;20.20;99.90;;;;;;5093178;28;20382;-78
2021/08/14 06:05:18;;;;;;;0.40;0.30;;;20.30;99.90;;;;;;5122681;27;20786;-78
2021/08/14 06:07:50;;;;;;;0.40;0.20;;;20.30;99.90;;;;;;5079386;28;20382;-77
2021/08/14 06:10:18;;;;;;;0.40;0.30;;;20.30;99.90;;;;;;5105512;28;20485;-78
2021/08/14 06:12:44;;;;;;;0.40;0.20;;;20.40;99.90;;;;;;5104393;28;20468;-78
2021/08/14 06:15:11;;;;;;;0.40;0.20;;;20.50;99.90;;;;;;5097985;28;20378;-78
2021/08/14 06:17:37;;;;;;;0.40;0.30;;;20.60;99.90;;;;;;5091536;28;20883;-78
2021/08/14 06:20:04;;;;;;;0.40;0.20;;;20.60;99.90;;;;;;5080348;28;20385;-78
2021/08/14 06:22:30;;;;;;;0.40;0.30;;;20.60;99.90;;;;;;5102661;28;20771;-78
2021/08/14 06:24:55;;;;;;;0.40;0.20;;;20.70;99.90;;;;;;5105566;28;20450;-78
2021/08/14 06:27:21;;;;;;;0.40;0.25;;;20.80;99.90;;;;;;5096190;28;20382;-78
2021/08/14 06:29:48;;;;;;;0.40;0.30;;;20.80;99.90;;;;;;5108863;28;20489;-78
2021/08/14 06:32:13;;;;;;;0.40;0.25;;;20.80;99.90;;;;;;5100081;28;20380;-78
2021/08/14 06:34:39;;;;;;;0.40;0.30;;;20.70;99.90;;;;;;5101852;28;20379;-78
2021/08/14 06:37:05;;;;;;;0.40;0.30;;;20.90;99.90;;;;;;5107109;28;20379;-78
2021/08/14 06:39:31;;;;;;;0.40;0.30;;;20.90;99.90;;;;;;5096109;28;20476;-77
2021/08/14 06:41:57;;;;;;;0.40;0.30;;;20.90;99.90;;;;;;5107390;28;20829;-77
2021/08/14 06:44:22;;;;;;;0.40;0.30;;;21.10;99.90;;;;;;5101403;28;20377;-77
2021/08/14 06:46:48;;;;;;;0.40;0.33;;;21.20;99.90;;;;;;5099638;28;20444;-78
2021/08/14 06:49:14;;;;;;;0.40;0.30;;;21.40;99.90;;;;;;5108242;28;20391;-78
2021/08/14 06:51:39;;;;;;;0.40;0.20;;;21.40;99.90;;;;;;5095857;28;20381;-78
2021/08/14 06:54:06;;;;;;;0.40;0.30;;;21.50;99.90;;;;;;5105354;28;20426;-78
2021/08/14 06:56:31;;;;;;;0.40;0.30;;;21.60;99.90;;;;;;5094886;28;20382;-78
2021/08/14 06:58:57;;;;;;;0.40;0.30;;;21.60;99.90;;;;;;5105077;28;20735;-78
2021/08/14 07:01:23;;;;;;;0.40;0.20;;;21.70;99.90;;;;;;5095726;28;20377;-78
2021/08/14 07:03:49;;;;;;;0.40;0.30;;;21.80;99.90;;;;;;5107673;28;20470;-77
2021/08/14 07:06:22;;;;;;;0.40;0.30;;;21.90;99.90;;;;;;5099741;28;20412;-77
2021/08/14 07:08:48;;;;;;;0.40;0.20;;;21.90;99.90;;;;;;5099416;28;20386;-77
2021/08/14 07:11:18;;;;;;;0.40;0.20;;;22.00;99.90;;;;;;5107764;28;20389;-78
2021/08/14 07:13:43;;;;;;;0.40;0.20;;;22.00;99.90;;;;;;5076623;28;20745;-76
2021/08/14 07:16:09;;;;;;;0.40;0.20;;;22.10;99.90;;;;;;5112219;28;20392;-77
2021/08/14 07:18:35;;;;;;;0.40;0.20;;;22.20;99.90;;;;;;5101575;28;20374;-77
2021/08/14 07:21:01;;;;;;;0.40;0.40;;;22.20;99.90;;;;;;5105335;28;20377;-77
2021/08/14 07:23:27;;;;;;;0.40;0.30;;;22.30;99.90;;;;;;5095242;28;20847;-77
2021/08/14 07:25:52;;;;;;;0.40;0.30;;;22.40;99.90;;;;;;5088675;28;20435;-77
2021/08/14 07:28:20;;;;;;;0.40;0.40;;;22.50;99.90;;;;;;5099847;28;20491;-77
2021/08/14 07:30:47;;;;;;;0.40;0.30;;;22.60;99.90;;;;;;5099646;28;20378;-77
2021/08/14 07:33:14;;;;;;;0.40;0.30;;;22.60;99.90;;;;;;5107032;28;20380;-77
2021/08/14 07:35:40;;;;;;;0.60;0.60;;;22.70;99.90;;;;;;5076908;28;20393;-77
2021/08/14 07:38:05;;;;;;;0.40;0.30;;;22.80;99.90;;;;;;5104426;28;20885;-77
2021/08/14 07:40:31;;;;;;;0.40;0.30;;;22.90;99.90;;;;;;5101758;28;20392;-77
2021/08/14 07:42:57;;;;;;;0.40;0.20;;;23.00;99.90;;;;;;5096945;28;20471;-77
2021/08/14 07:45:24;;;;;;;0.40;0.30;;;23.10;99.90;;;;;;5092329;28;20421;-77
2021/08/14 07:47:50;;;;;;;0.40;0.30;;;23.20;99.90;;;;;;5091345;28;20465;-77
2021/08/14 07:50:24;;;;;;;0.40;0.20;;;23.40;99.90;;;;;;5087148;28;20482;-77
2021/08/14 07:52:51;;;;;;;0.40;0.30;;;23.40;99.90;;;;;;5090045;28;20395;-77
2021/08/14 07:55:18;;;;;;;0.40;0.23;;;23.50;99.90;;;;;;5102638;28;20427;-77
2021/08/14 07:57:44;;;;;;;0.40;0.20;;;23.70;99.90;;;;;;5106796;28;20384;-76
2021/08/14 08:00:12;;;;;;;0.40;0.30;;;23.80;99.90;;;;;;5092026;28;20856;-77
2021/08/14 08:02:37;;;;;;;0.40;0.30;;;23.90;99.90;;;;;;5091840;28;20870;-77
2021/08/14 08:05:04;;;;;;;0.40;0.20;;;24.10;99.90;;;;;;5091055;28;20526;-77
2021/08/14 08:07:31;;;;;;;0.40;0.30;;;23.90;99.90;;;;;;5092566;28;20394;-77
2021/08/14 08:09:57;;;;;;;0.40;0.23;;;24.10;99.90;;;;;;5070901;28;20831;-77
2021/08/14 08:12:22;;;;;;;0.40;0.20;;;24.20;99.90;;;;;;5089518;28;20393;-77
2021/08/14 08:14:48;;;;;;;1.00;0.80;;;24.20;99.90;;;;;;5088690;28;20377;-76
2021/08/14 08:17:14;;;;;;;0.40;0.20;;;24.30;99.90;;;;;;5089395;28;20382;-77
2021/08/14 08:19:39;;;;;;;0.40;0.20;;;24.20;99.90;;;;;;5089503;28;20378;-77
2021/08/14 08:22:05;;;;;;;0.40;0.20;;;24.30;99.90;;;;;;5088988;28;20385;-76
2021/08/14 08:24:31;;;;;;;0.40;0.20;;;24.30;99.90;;;;;;5089581;28;20378;-77
2021/08/14 08:26:57;;;;;;;0.40;0.20;;;24.40;99.90;;;;;;5088893;28;20481;-77
2021/08/14 08:29:23;;;;;;;0.40;0.20;;;24.40;99.90;;;;;;5089480;28;20412;-77
2021/08/14 08:31:49;;;;;;;0.40;0.20;;;24.30;99.90;;;;;;5089001;28;20382;-78
2021/08/14 08:34:15;;;;;;;0.40;0.30;;;24.50;99.90;;;;;;5088952;28;20405;-77
2021/08/14 08:36:40;;;;;;;0.40;0.30;;;24.50;99.90;;;;;;5086761;28;20386;-77
2021/08/14 08:39:06;;;;;;;0.40;0.30;;;24.60;99.90;;;;;;5088385;28;20916;-77
2021/08/14 08:41:34;;;;;;;0.40;0.30;;;24.60;99.90;;;;;;5088670;28;20744;-76
2021/08/14 08:44:00;;;;;;;0.40;0.30;;;24.70;99.90;;;;;;5088647;28;20378;-76
2021/08/14 08:46:31;;;;;;;0.40;0.20;;;24.70;99.90;;;;;;5093301;28;20398;-75
2021/08/14 08:48:59;;;;;;;0.40;0.30;;;24.80;99.90;;;;;;5092109;28;20878;-75
2021/08/14 08:51:28;;;;;;;0.40;0.20;;;24.90;99.90;;;;;;5093134;28;20420;-76
2021/08/14 08:53:54;;;;;;;0.40;0.30;;;25.00;99.90;;;;;;5092465;28;20401;-76
2021/08/14 08:56:20;;;;;;;0.40;0.30;;;24.80;99.90;;;;;;5093512;28;20506;-76
2021/08/14 08:58:46;;;;;;;0.50;0.50;;;24.80;99.90;;;;;;5092479;28;20370;-77
2021/08/14 09:01:12;;;;;;;0.85;0.85;;;24.80;99.90;;;;;;5092843;28;20377;-76
2021/08/14 09:03:37;;;;;;;0.40;0.20;;;24.90;99.90;;;;;;5092985;28;20374;-77
2021/08/14 09:06:03;;;;;;;0.40;0.20;;;25.00;99.90;;;;;;5092397;28;20438;-75
2021/08/14 09:08:29;;;;;;;0.40;0.20;;;24.90;99.90;;;;;;5091872;28;21223;-77
2021/08/14 09:11:13;;;;;;;0.40;0.20;;;25.00;99.90;;;;;;5084124;28;20463;-77
2021/08/14 09:14:00;;;;;;;0.40;0.20;;;25.20;99.90;;;;;;5078783;28;20418;-76
2021/08/14 09:16:26;;;;;;;0.40;0.30;;;25.20;99.90;;;;;;5078044;28;20467;-78
2021/08/14 09:18:58;;;;;;;0.40;0.20;;;25.30;99.90;;;;;;5078095;28;20545;-76
2021/08/14 09:21:37;;;;;;;0.40;0.20;;;25.50;99.90;;;;;;5079122;28;20473;-75
2021/08/14 09:24:05;;;;;;;0.40;0.30;;;25.60;99.90;;;;;;5077327;28;20382;-76
2021/08/14 09:26:46;;;;;;;0.80;0.70;;;25.50;99.90;;;;;;5079114;28;20441;-76
2021/08/14 09:29:12;;;;;;;0.40;0.30;;;25.60;99.90;;;;;;5079679;28;20963;-79
2021/08/14 09:31:49;;;;;;;0.40;0.20;;;25.70;99.90;;;;;;5079403;28;20413;-79
2021/08/14 09:34:20;;;;;;;0.40;0.30;;;25.70;99.90;;;;;;5059832;28;20417;-81
2021/08/14 09:37:15;;;;;;;0.40;0.20;;;25.60;99.90;;;;;;5079810;28;20882;-79
2021/08/14 09:40:01;;;;;;;0.40;0.30;;;25.80;99.90;;;;;;5078973;28;20401;-81
2021/08/14 09:42:28;;;;;;;0.40;0.40;;;25.90;99.90;;;;;;5077293;28;20405;-80
2021/08/14 09:45:17;;;;;;;0.40;0.30;;;26.00;99.90;;;;;;5079169;28;20780;-81
2021/08/14 09:47:44;;;;;;;0.40;0.30;;;25.80;99.90;;;;;;5079521;28;20386;-81
2021/08/14 09:50:11;;;;;;;0.40;0.30;;;26.00;99.90;;;;;;5078471;28;20428;-82
2021/08/14 09:52:37;;;;;;;0.40;0.20;;;26.40;99.90;;;;;;5077118;28;20386;-82
2021/08/14 09:55:03;;;;;;;0.40;0.20;;;26.10;99.90;;;;;;5060143;28;20417;-80
2021/08/14 09:57:29;;;;;;;0.40;0.20;;;26.10;99.90;;;;;;5077997;28;20386;-82
2021/08/14 09:59:56;;;;;;;0.40;0.20;;;26.30;99.90;;;;;;5058464;28;21527;-79
2021/08/14 10:02:29;;;;;;;0.40;0.30;;;26.20;99.90;;;;;;5075958;28;20389;-86
2021/08/14 10:04:58;;;;;;;0.40;0.22;;;26.30;99.90;;;;;;5076931;28;20397;-79
2021/08/14 10:07:25;;;;;;;0.40;0.30;;;26.20;99.90;;;;;;5077308;28;20734;-82
2021/08/14 10:09:51;;;;;;;0.40;0.20;;;26.30;99.90;;;;;;5076676;28;20402;-79
2021/08/14 10:12:19;;;;;;;0.40;0.20;;;25.20;99.90;;;;;;5074946;28;20382;-81
2021/08/14 10:14:50;;;;;;;0.40;0.20;;;26.70;99.90;;;;;;5077449;28;20491;-81
2021/08/14 10:17:17;;;;;;;0.40;0.30;;;26.70;99.90;;;;;;5077681;28;21035;-81
2021/08/14 10:19:45;;;;;;;0.50;0.50;;;26.60;99.90;;;;;;5078019;28;20914;-81
2021/08/14 10:22:11;;;;;;;0.40;0.30;;;26.50;99.90;;;;;;5074686;28;20397;-81
2021/08/14 10:24:39;;;;;;;0.40;0.20;;;26.70;99.90;;;;;;5058653;28;20439;-80
2021/08/14 10:27:16;;;;;;;0.40;0.30;;;26.70;99.90;;;;;;5076970;28;20417;-82
2021/08/14 10:29:50;;;;;;;0.40;0.30;;;26.90;99.90;;;;;;5078096;28;20414;-78
2021/08/14 10:32:34;;;;;;;0.40;0.20;;;27.00;99.90;;;;;;5076626;28;20463;-82
2021/08/14 10:35:14;;;;;;;0.40;0.20;;;27.10;99.90;;;;;;5077994;28;20465;-80
2021/08/14 10:37:42;;;;;;;0.40;0.20;;;27.00;99.90;;;;;;5079116;28;20459;-81
2021/08/14 10:40:09;;;;;;;0.40;0.30;;;27.20;99.90;;;;;;5058891;28;20746;-81
2021/08/14 10:42:54;;;;;;;0.40;0.30;;;27.20;99.90;;;;;;5077316;28;20390;-80
2021/08/14 10:45:25;;;;;;;0.40;0.30;;;27.40;99.90;;;;;;5079287;28;20421;-79
2021/08/14 10:47:52;;;;;;;0.40;0.20;;;27.40;99.90;;;;;;5078155;28;20386;-81
2021/08/14 10:50:33;;;;;;;0.40;0.20;;;27.50;99.90;;;;;;5078487;28;20500;-82
2021/08/14 10:53:41;;;;;;;0.40;0.30;;;27.60;99.90;;;;;;5076902;28;20381;-78
2021/08/14 10:56:06;;;;;;;0.40;0.30;;;27.70;99.90;;;;;;5079480;28;20871;-80
2021/08/14 10:58:37;;;;;;;0.40;0.30;;;27.60;99.90;;;;;;5079287;28;20388;-80
2021/08/14 11:01:03;;;;;;;0.40;0.30;;;27.70;99.90;;;;;;5077778;28;20382;-80
2021/08/14 11:03:37;;;;;;;0.40;0.20;;;27.80;99.90;;;;;;5077280;28;20420;-80
2021/08/14 11:06:30;;;;;;;0.40;0.20;;;27.80;99.90;;;;;;5078327;28;20962;-81
2021/08/14 11:09:16;;;;;;;0.40;0.30;;;27.90;99.90;;;;;;5073443;28;20390;-80
2021/08/14 11:12:01;;;;;;;0.40;0.30;;;28.10;99.40;;;;;;5078542;28;20422;-79
2021/08/14 11:15:12;;;;;;;0.40;0.30;;;28.30;98.60;;;;;;5078200;28;21138;-80
2021/08/14 11:17:38;;;;;;;0.40;0.30;;;28.30;98.80;;;;;;5070949;28;20772;-79
2021/08/14 11:20:04;;;;;;;0.40;0.30;;;28.40;98.10;;;;;;5077527;28;20382;-81
2021/08/14 11:22:42;;;;;;;0.40;0.20;;;28.50;98.20;;;;;;5077253;28;20964;-80
2021/08/14 11:25:29;;;;;;;0.40;0.20;;;28.60;97.70;;;;;;5077710;28;20450;-79
2021/08/14 11:27:58;;;;;;;0.40;0.20;;;28.50;99.70;;;;;;5077817;28;20406;-79
2021/08/14 11:30:27;;;;;;;0.40;0.20;;;28.80;98.50;;;;;;5077935;28;20382;-78
2021/08/14 11:32:56;;;;;;;0.40;0.20;;;29.20;96.70;;;;;;5076163;28;20386;-81
2021/08/14 11:35:24;;;;;;;0.40;0.20;;;29.40;95.90;;;;;;5078057;28;20781;-79
2021/08/14 11:38:02;;;;;;;0.40;0.30;;;29.10;96.20;;;;;;5079149;28;20926;-79
2021/08/14 11:40:33;;;;;;;0.40;0.20;;;29.30;95.70;;;;;;5078759;28;21124;-81
2021/08/14 11:43:07;;;;;;;0.40;0.30;;;29.50;95.60;;;;;;5076992;28;20469;-80
2021/08/14 11:45:36;;;;;;;0.40;0.30;;;29.90;95.10;;;;;;5078565;28;20419;-80
2021/08/14 11:48:09;;;;;;;0.40;0.20;;;30.30;93.70;;;;;;5079138;28;20818;-79
2021/08/14 11:50:46;;;;;;;0.40;0.30;;;29.80;93.90;;;;;;5078530;28;20394;-80
2021/08/14 11:53:23;;;;;;;0.40;0.30;;;30.10;93.40;;;;;;5074141;28;20385;-80
2021/08/14 11:56:11;;;;;;;0.40;0.20;;;30.40;93.10;;;;;;5077732;28;20473;-81
2021/08/14 11:58:38;;;;;;;0.40;0.20;;;30.20;93.20;;;;;;5077041;28;20422;-80
2021/08/14 12:01:05;;;;;;;0.40;0.30;;;30.30;92.40;;;;;;5077900;28;20412;-80
2021/08/14 12:03:30;;;;;;;0.40;0.20;;;30.50;92.60;;;;;;5075268;28;20413;-83
2021/08/14 12:06:14;;;;;;;0.40;0.30;;;30.50;92.40;;;;;;5058448;28;21308;-81
2021/08/14 12:08:42;;;;;;;0.40;0.20;;;30.30;92.60;;;;;;5076498;28;20423;-76
2021/08/14 12:11:11;;;;;;;0.40;0.20;;;30.60;92.70;;;;;;5076253;28;20832;-75
2021/08/14 12:13:37;;;;;;;0.40;0.20;;;30.30;92.70;;;;;;5074810;28;20789;-74
2021/08/14 12:16:13;;;;;;;0.40;0.30;;;30.40;92.10;;;;;;5076604;28;20401;-76
2021/08/14 12:18:40;;;;;;;0.40;0.20;;;30.40;91.90;;;;;;5077139;28;20423;-78
2021/08/14 12:21:08;;;;;;;0.40;0.20;;;30.50;92.50;;;;;;5079935;28;20878;-76
2021/08/14 12:23:35;;;;;;;0.40;0.20;;;30.30;92.30;;;;;;5079592;28;20711;-76
2021/08/14 12:26:07;;;;;;;0.40;0.20;;;30.30;92.50;;;;;;5080853;28;20730;-75
2021/08/14 12:28:35;;;;;;;0.40;0.20;;;30.30;92.30;;;;;;5081226;28;20425;-75
2021/08/14 12:31:13;;;;;;;0.40;0.30;;;30.30;92.40;;;;;;5079836;28;20571;-76
2021/08/14 12:33:55;;;;;;;0.40;0.20;;;30.70;92.40;;;;;;5078909;28;20385;-76
2021/08/14 12:36:38;;;;;;;0.40;0.20;;;30.70;91.50;;;;;;5080665;28;20422;-75
2021/08/14 12:39:07;;;;;;;0.40;0.20;;;30.80;94.50;;;;;;5079724;28;20397;-77
2021/08/14 12:41:51;;;;;;;0.40;0.20;;;31.10;90.40;;;;;;5061697;28;20456;-76
2021/08/14 12:44:16;;;;;;;0.40;0.25;;;31.30;90.30;;;;;;5079233;28;20445;-75
2021/08/14 12:46:42;;;;;;;0.40;0.30;;;31.50;90.00;;;;;;5081595;28;20413;-75
2021/08/14 12:49:23;;;;;;;0.40;0.20;;;31.30;88.20;;;;;;5080486;28;20386;-74
2021/08/14 12:52:02;;;;;;;0.40;0.20;;;31.70;88.10;;;;;;5062482;28;21130;-77
2021/08/14 12:54:30;;;;;;;0.40;0.20;;;31.90;90.30;;;;;;5080292;28;20452;-75